• Join FlightAware (Why Join?)
  • Login
  • US Flag 
02:17AM EDT


 

Airport Tracker/Info


-or-


 

Live Flight TrackerFlight Track Log ✈ TYR848 ✈ 30-Jul-2013 ✈ LATI / TIA - LOWW / VIE

Flight Track Log - Related Links

Times and Time Zones

All times are in EDT time to prevent confusion due to time zone crossing. See the TYR848 flight status page for this flight to view local times or setup timezone preferences in your user account.

Time Position Orientation Groundspeed Altitude Reporting Facility
EDT Latitude Longitude Course Direction KTS MPH feet Rate Location/Type
09:22AM 41.9461 19.4969 343° North  Level Estimated
09:23AM 42.0346 19.4592 342° North  Level Estimated
09:24AM 42.1231 19.4215 342° North  Level Estimated
09:25AM 42.2116 19.3836 342° North  Level Estimated
09:26AM 42.3001 19.3457 342° North  Level Estimated
09:27AM 42.3886 19.3076 342° North  Level Estimated
09:28AM 42.4770 19.2694 342° North  Level Estimated
09:29AM 42.5654 19.2312 342° North  Level Estimated
09:30AM 42.6539 19.1928 342° North  Level Estimated
09:31AM 42.7423 19.1543 342° North  Level Estimated
09:32AM 42.8307 19.1157 342° North  Level Estimated
09:33AM 42.9191 19.0769 342° North  Level Estimated
09:34AM 43.0075 19.0381 342° North  Level Estimated
09:35AM 43.0958 18.9992 342° North  Level Estimated
09:36AM 43.1842 18.9601 342° North  Level Estimated
09:37AM 43.2725 18.9209 342° North  Level Estimated
09:38AM 43.3608 18.8817 342° North  Level Estimated
09:39AM 43.4492 18.8423 342° North  Level Estimated
09:40AM 43.5374 18.8027 342° North  Level Estimated
09:41AM 43.6257 18.7631 342° North  Level Estimated
09:42AM 43.7140 18.7234 342° North  Level Estimated
09:43AM 43.8023 18.6835 342° North  Level Estimated
09:44AM 43.8905 18.6435 342° North  Level Estimated
09:45AM 43.9787 18.6034 342° North  Level Estimated
09:46AM 44.0669 18.5632 342° North  Level Estimated
09:47AM 44.1551 18.5229 342° North  Level Estimated
09:48AM 44.2433 18.4824 342° North  Level Estimated
09:49AM 44.3315 18.4418 342° North  Level Estimated
09:50AM 44.4197 18.4011 342° North  Level Estimated
09:51AM 44.5078 18.3603 342° North  Level Estimated
09:52AM 44.5959 18.3194 342° North  Level Estimated
09:53AM 44.6840 18.2783 342° North  Level Estimated
09:54AM 44.7721 18.2371 342° North  Level Estimated
09:55AM 44.8602 18.1958 342° North  Level Estimated
09:56AM 44.9483 18.1543 342° North  Level Estimated
09:57AM 45.0363 18.1127 342° North  Level Estimated
09:58AM 45.1244 18.0710 342° North  Level Estimated
09:59AM 45.2124 18.0292 341° North  Level Estimated
10:00AM 45.3004 17.9872 341° North  Level Estimated
10:01AM 45.3884 17.9451 341° North  Level Estimated
10:02AM 45.4764 17.9029 341° North  Level Estimated
10:03AM 45.5643 17.8605 341° North  Level Estimated
10:04AM 45.6523 17.8181 341° North  Level Estimated
10:05AM 45.7402 17.7754 341° North  Level Estimated
10:06AM 45.8281 17.7327 341° North  Level Estimated
10:07AM 45.9160 17.6898 341° North  Level Estimated
10:08AM 46.0039 17.6468 341° North  Level Estimated
10:09AM 46.0918 17.6036 341° North  Level Estimated
10:10AM 46.1796 17.5603 341° North  Level Estimated
10:11AM 46.2675 17.5168 341° North  Level Estimated
10:12AM 46.3553 17.4733 341° North  Level Estimated
10:13AM 46.4431 17.4295 341° North  Level Estimated
10:14AM 46.5309 17.3857 341° North  Level Estimated
10:15AM 46.6186 17.3417 341° North  Level Estimated
10:16AM 46.7064 17.2975 341° North  Level Estimated
10:17AM 46.7941 17.2532 341° North  Level Estimated
10:18AM 46.8818 17.2088 341° North  Level Estimated
10:19AM 46.9695 17.1642 341° North  Level Estimated
10:20AM 47.0572 17.1195 341° North  Level Estimated
10:21AM 47.1449 17.0746 341° North  Level Estimated
10:22AM 47.2325 17.0296 341° North  Level Estimated
10:23AM 47.3201 16.9844 341° North  Level Estimated
10:24AM 47.4078 16.9391 341° North  Level Estimated
10:25AM 47.4953 16.8936 341° North  Level Estimated
10:26AM 47.5829 16.8479 341° North  Level Estimated
10:27AM 47.6705 16.8022 341° North  Level Estimated
10:28AM 47.7580 16.7562 341° North  Level Estimated
10:29AM 47.8455 16.7101 341° North  Level Estimated
10:30AM 47.9330 16.6639 341° North  Level Estimated
10:31AM 48.0205 16.6175 340° North  Level Estimated
10:32AM 48.1080 16.5709 340° North  Level Estimated
10:33AM 48.1103 16.5697 340° North  Level Estimated
10:34AM 48.1103 16.5697 146° Southeast  Level Estimated
10:35AM 48.1103 16.5697 146° Southeast  Level Estimated
10:36AM 48.1103 16.5697 146° Southeast  Level Estimated
10:37AM 48.1103 16.5697 146° Southeast  Level Estimated
10:38AM 48.1103 16.5697 146° Southeast  Level Estimated
10:39AM 48.1103 16.5697 146° Southeast  Level Estimated
10:40AM 48.1103 16.5697 146° Southeast  Level Estimated
10:41AM 48.1103 16.5697 146° Southeast  Level Estimated
10:42AM 48.1103 16.5697 146° Southeast  Level Estimated
10:43AM 48.1103 16.5697 146° Southeast  Level Estimated
10:44AM 48.1103 16.5697 146° Southeast  Level Estimated
10:45AM 48.1103 16.5697 146° Southeast  Level Estimated
10:46AM 48.1103 16.5697 146° Southeast  Level Estimated
10:47AM 48.1103 16.5697 146° Southeast  Level Estimated
10:48AM 48.1103 16.5697 146° Southeast  Level Estimated